sensor_id;sensor_type;location;lat;lon;timestamp;pressure;altitude;pressure_sealevel;temperature;humidity
54122;BME280;40029;58.708;50.190;2023-11-19T00:01:52;100301.44;;;-7.19;78.09
54122;BME280;40029;58.708;50.190;2023-11-19T00:04:41;100311.44;;;-7.26;78.33
54122;BME280;40029;58.708;50.190;2023-11-19T00:07:13;100304.53;;;-7.27;78.13
54122;BME280;40029;58.708;50.190;2023-11-19T00:09:44;100308.91;;;-7.25;77.97
54122;BME280;40029;58.708;50.190;2023-11-19T00:12:15;100311.34;;;-7.28;78.15
54122;BME280;40029;58.708;50.190;2023-11-19T00:14:47;100308.72;;;-7.29;78.13
54122;BME280;40029;58.708;50.190;2023-11-19T00:17:18;100305.94;;;-7.35;78.06
54122;BME280;40029;58.708;50.190;2023-11-19T00:19:49;100310.22;;;-7.34;78.20
54122;BME280;40029;58.708;50.190;2023-11-19T00:22:41;100303.47;;;-7.32;77.86
54122;BME280;40029;58.708;50.190;2023-11-19T00:25:13;100300.84;;;-7.34;77.93
54122;BME280;40029;58.708;50.190;2023-11-19T00:27:44;100291.53;;;-7.30;78.16
54122;BME280;40029;58.708;50.190;2023-11-19T00:30:15;100294.81;;;-7.34;78.03
54122;BME280;40029;58.708;50.190;2023-11-19T00:32:47;100311.50;;;-7.46;78.16
54122;BME280;40029;58.708;50.190;2023-11-19T00:35:19;100312.81;;;-7.34;78.15
54122;BME280;40029;58.708;50.190;2023-11-19T00:38:08;100303.47;;;-7.32;77.83
54122;BME280;40029;58.708;50.190;2023-11-19T00:40:39;100311.34;;;-7.28;77.60
54122;BME280;40029;58.708;50.190;2023-11-19T00:43:11;100310.59;;;-7.25;77.73
54122;BME280;40029;58.708;50.190;2023-11-19T00:45:42;100302.78;;;-7.28;77.66
54122;BME280;40029;58.708;50.190;2023-11-19T00:48:32;100304.59;;;-7.26;77.56
54122;BME280;40029;58.708;50.190;2023-11-19T00:51:04;100306.72;;;-7.37;77.63
54122;BME280;40029;58.708;50.190;2023-11-19T00:53:53;100306.94;;;-7.32;77.56
54122;BME280;40029;58.708;50.190;2023-11-19T00:56:25;100307.66;;;-7.34;77.85
54122;BME280;40029;58.708;50.190;2023-11-19T00:58:56;100304.66;;;-7.47;77.62
54122;BME280;40029;58.708;50.190;2023-11-19T01:01:28;100296.22;;;-7.43;77.95
54122;BME280;40029;58.708;50.190;2023-11-19T01:03:59;100279.75;;;-7.48;78.44
54122;BME280;40029;58.708;50.190;2023-11-19T01:06:31;100284.78;;;-7.51;78.39
54122;BME280;40029;58.708;50.190;2023-11-19T01:09:03;100290.19;;;-7.43;78.36
54122;BME280;40029;58.708;50.190;2023-11-19T01:11:34;100289.69;;;-7.34;78.14
54122;BME280;40029;58.708;50.190;2023-11-19T01:14:05;100289.69;;;-7.34;77.99
54122;BME280;40029;58.708;50.190;2023-11-19T01:16:37;100286.19;;;-7.37;77.87
54122;BME280;40029;58.708;50.190;2023-11-19T01:19:08;100287.13;;;-7.34;78.13
54122;BME280;40029;58.708;50.190;2023-11-19T01:21:39;100287.00;;;-7.38;78.13
54122;BME280;40029;58.708;50.190;2023-11-19T01:24:10;100290.59;;;-7.34;78.04
54122;BME280;40029;58.708;50.190;2023-11-19T01:27:02;100286.25;;;-7.35;77.74
54122;BME280;40029;58.708;50.190;2023-11-19T01:29:33;100291.53;;;-7.30;78.27
54122;BME280;40029;58.708;50.190;2023-11-19T01:32:22;100294.88;;;-7.33;77.96
54122;BME280;40029;58.708;50.190;2023-11-19T01:34:57;100295.66;;;-7.35;77.79
54122;BME280;40029;58.708;50.190;2023-11-19T01:37:28;100293.44;;;-7.26;77.85
54122;BME280;40029;58.708;50.190;2023-11-19T01:39:59;100295.94;;;-7.28;77.67
54122;BME280;40029;58.708;50.190;2023-11-19T01:42:36;100295.81;;;-7.31;77.85
54122;BME280;40029;58.708;50.190;2023-11-19T01:45:08;100298.38;;;-7.31;77.71
54122;BME280;40029;58.708;50.190;2023-11-19T01:48:00;100286.41;;;-7.30;78.05
54122;BME280;40029;58.708;50.190;2023-11-19T01:50:34;100291.72;;;-7.26;77.83
54122;BME280;40029;58.708;50.190;2023-11-19T01:53:07;100288.03;;;-7.32;78.04
54122;BME280;40029;58.708;50.190;2023-11-19T01:55:38;100297.81;;;-7.24;78.26
54122;BME280;40029;58.708;50.190;2023-11-19T01:58:09;100292.94;;;-7.16;77.65
54122;BME280;40029;58.708;50.190;2023-11-19T02:00:40;100299.91;;;-7.13;77.59
54122;BME280;40029;58.708;50.190;2023-11-19T02:03:12;100304.22;;;-7.12;77.57
54122;BME280;40029;58.708;50.190;2023-11-19T02:05:45;100306.16;;;-7.07;77.42
54122;BME280;40029;58.708;50.190;2023-11-19T02:08:19;100300.91;;;-7.10;77.57
54122;BME280;40029;58.708;50.190;2023-11-19T02:10:51;100295.00;;;-7.07;77.20
54122;BME280;40029;58.708;50.190;2023-11-19T02:13:26;100294.22;;;-7.05;77.33
54122;BME280;40029;58.708;50.190;2023-11-19T02:15:58;100290.72;;;-7.07;77.01
54122;BME280;40029;58.708;50.190;2023-11-19T02:18:30;100290.97;;;-7.01;77.23
54122;BME280;40029;58.708;50.190;2023-11-19T02:21:02;100295.13;;;-7.04;77.13
54122;BME280;40029;58.708;50.190;2023-11-19T02:23:33;100292.72;;;-7.00;76.96
54122;BME280;40029;58.708;50.190;2023-11-19T02:26:18;100288.41;;;-7.01;77.21
54122;BME280;40029;58.708;50.190;2023-11-19T02:28:53;100293.47;;;-7.02;77.24
54122;BME280;40029;58.708;50.190;2023-11-19T02:31:24;100293.81;;;-6.93;77.18
54122;BME280;40029;58.708;50.190;2023-11-19T02:33:55;100296.22;;;-6.97;77.26
54122;BME280;40029;58.708;50.190;2023-11-19T02:36:26;100293.69;;;-6.96;77.14
54122;BME280;40029;58.708;50.190;2023-11-19T02:38:58;100291.19;;;-6.94;77.19
54122;BME280;40029;58.708;50.190;2023-11-19T02:41:29;100284.41;;;-6.92;77.16
54122;BME280;40029;58.708;50.190;2023-11-19T02:44:00;100287.16;;;-6.88;77.40
54122;BME280;40029;58.708;50.190;2023-11-19T02:46:32;100279.38;;;-6.89;77.34
54122;BME280;40029;58.708;50.190;2023-11-19T02:49:03;100278.53;;;-6.88;77.17
54122;BME280;40029;58.708;50.190;2023-11-19T02:51:34;100283.88;;;-6.84;77.09
54122;BME280;40029;58.708;50.190;2023-11-19T02:54:06;100276.22;;;-6.82;76.99
54122;BME280;40029;58.708;50.190;2023-11-19T02:56:37;100277.75;;;-6.87;77.38
54122;BME280;40029;58.708;50.190;2023-11-19T02:59:09;100267.72;;;-6.80;77.48
54122;BME280;40029;58.708;50.190;2023-11-19T03:01:57;100266.84;;;-6.80;77.50
54122;BME280;40029;58.708;50.190;2023-11-19T03:04:30;100277.16;;;-6.80;77.28
54122;BME280;40029;58.708;50.190;2023-11-19T03:07:01;100279.66;;;-6.82;77.29
54122;BME280;40029;58.708;50.190;2023-11-19T03:09:33;100271.72;;;-6.88;77.37
54122;BME280;40029;58.708;50.190;2023-11-19T03:12:24;100267.66;;;-6.81;77.63
54122;BME280;40029;58.708;50.190;2023-11-19T03:14:57;100271.16;;;-6.79;77.46
54122;BME280;40029;58.708;50.190;2023-11-19T03:17:28;100269.69;;;-6.72;77.67
54122;BME280;40029;58.708;50.190;2023-11-19T03:20:17;100265.53;;;-6.69;77.27
54122;BME280;40029;58.708;50.190;2023-11-19T03:22:48;100276.63;;;-6.70;77.33
54122;BME280;40029;58.708;50.190;2023-11-19T03:25:21;100282.63;;;-6.71;77.25
54122;BME280;40029;58.708;50.190;2023-11-19T03:27:52;100287.03;;;-6.67;77.38
54122;BME280;40029;58.708;50.190;2023-11-19T03:30:24;100286.84;;;-6.73;78.35
54122;BME280;40029;58.708;50.190;2023-11-19T03:32:58;100284.53;;;-6.65;77.86
54122;BME280;40029;58.708;50.190;2023-11-19T03:35:31;100286.31;;;-6.63;77.70
54122;BME280;40029;58.708;50.190;2023-11-19T03:38:03;100283.66;;;-6.66;77.50
54122;BME280;40029;58.708;50.190;2023-11-19T03:40:35;100275.22;;;-6.62;77.60
54122;BME280;40029;58.708;50.190;2023-11-19T03:43:06;100275.44;;;-6.55;77.28
54122;BME280;40029;58.708;50.190;2023-11-19T03:45:55;100284.06;;;-6.53;77.30
54122;BME280;40029;58.708;50.190;2023-11-19T03:48:46;100287.38;;;-6.57;77.53
54122;BME280;40029;58.708;50.190;2023-11-19T03:51:18;100280.53;;;-6.57;77.51
54122;BME280;40029;58.708;50.190;2023-11-19T03:54:07;100271.00;;;-6.60;77.71
54122;BME280;40029;58.708;50.190;2023-11-19T03:56:39;100272.81;;;-6.57;77.56
54122;BME280;40029;58.708;50.190;2023-11-19T03:59:10;100270.13;;;-6.60;77.64
54122;BME280;40029;58.708;50.190;2023-11-19T04:01:41;100271.16;;;-6.55;77.59
54122;BME280;40029;58.708;50.190;2023-11-19T04:04:12;100270.16;;;-6.58;77.92
54122;BME280;40029;58.708;50.190;2023-11-19T04:06:44;100279.66;;;-6.57;78.01
54122;BME280;40029;58.708;50.190;2023-11-19T04:09:15;100278.66;;;-6.61;77.91
54122;BME280;40029;58.708;50.190;2023-11-19T04:11:47;100280.47;;;-6.58;77.82
54122;BME280;40029;58.708;50.190;2023-11-19T04:14:19;100281.19;;;-6.63;78.09
54122;BME280;40029;58.708;50.190;2023-11-19T04:16:50;100286.72;;;-6.52;77.99
54122;BME280;40029;58.708;50.190;2023-11-19T04:19:22;100287.69;;;-6.48;78.06
54122;BME280;40029;58.708;50.190;2023-11-19T04:21:53;100287.69;;;-6.48;77.70
54122;BME280;40029;58.708;50.190;2023-11-19T04:24:24;100288.41;;;-6.52;77.93
54122;BME280;40029;58.708;50.190;2023-11-19T04:26:55;100287.56;;;-6.51;77.75
54122;BME280;40029;58.708;50.190;2023-11-19T04:29:27;100293.75;;;-6.46;77.64
54122;BME280;40029;58.708;50.190;2023-11-19T04:31:58;100287.81;;;-6.45;77.73
54122;BME280;40029;58.708;50.190;2023-11-19T04:34:32;100286.03;;;-6.46;78.08
54122;BME280;40029;58.708;50.190;2023-11-19T04:37:04;100285.84;;;-6.52;77.93
54122;BME280;40029;58.708;50.190;2023-11-19T04:39:35;100288.69;;;-6.45;77.85
54122;BME280;40029;58.708;50.190;2023-11-19T04:42:07;100291.91;;;-6.50;77.86
54122;BME280;40029;58.708;50.190;2023-11-19T04:44:38;100294.38;;;-6.53;78.19
54122;BME280;40029;58.708;50.190;2023-11-19T04:47:10;100286.81;;;-6.49;77.75
54122;BME280;40029;58.708;50.190;2023-11-19T04:49:41;100297.25;;;-6.44;77.70
54122;BME280;40029;58.708;50.190;2023-11-19T04:52:15;100295.56;;;-6.44;77.94
54122;BME280;40029;58.708;50.190;2023-11-19T04:54:47;100298.19;;;-6.42;77.47
54122;BME280;40029;58.708;50.190;2023-11-19T04:57:19;100304.31;;;-6.38;78.02
54122;BME280;40029;58.708;50.190;2023-11-19T04:59:50;100298.56;;;-6.31;77.86
54122;BME280;40029;58.708;50.190;2023-11-19T05:02:21;100303.56;;;-6.36;78.03
54122;BME280;40029;58.708;50.190;2023-11-19T05:04:52;100307.22;;;-6.29;77.87
54122;BME280;40029;58.708;50.190;2023-11-19T05:07:23;100295.31;;;-6.26;77.74
54122;BME280;40029;58.708;50.190;2023-11-19T05:09:54;100288.31;;;-6.30;77.77
54122;BME280;40029;58.708;50.190;2023-11-19T05:12:44;100293.59;;;-6.27;77.85
54122;BME280;40029;58.708;50.190;2023-11-19T05:15:15;100291.88;;;-6.26;77.55
54122;BME280;40029;58.708;50.190;2023-11-19T05:17:47;100294.19;;;-6.34;77.79
54122;BME280;40029;58.708;50.190;2023-11-19T05:20:18;100301.41;;;-6.24;77.74
54122;BME280;40029;58.708;50.190;2023-11-19T05:22:49;100297.16;;;-6.23;77.40
54122;BME280;40029;58.708;50.190;2023-11-19T05:25:22;100293.97;;;-6.16;77.53
54122;BME280;40029;58.708;50.190;2023-11-19T05:27:53;100293.38;;;-6.07;77.46
54122;BME280;40029;58.708;50.190;2023-11-19T05:30:25;100298.38;;;-6.12;77.13
54122;BME280;40029;58.708;50.190;2023-11-19T05:33:14;100295.69;;;-6.15;77.57
54122;BME280;40029;58.708;50.190;2023-11-19T05:35:45;100293.16;;;-6.13;77.11
54122;BME280;40029;58.708;50.190;2023-11-19T05:38:16;100292.56;;;-6.06;76.95
54122;BME280;40029;58.708;50.190;2023-11-19T05:40:48;100298.44;;;-6.10;77.31
54122;BME280;40029;58.708;50.190;2023-11-19T05:43:19;100300.38;;;-6.03;77.24
54122;BME280;40029;58.708;50.190;2023-11-19T05:45:50;100302.25;;;-5.99;77.25
54122;BME280;40029;58.708;50.190;2023-11-19T05:48:22;100301.41;;;-5.98;76.89
54122;BME280;40029;58.708;50.190;2023-11-19T05:51:12;100300.75;;;-5.91;77.56
54122;BME280;40029;58.708;50.190;2023-11-19T05:53:44;100305.28;;;-5.84;77.03
54122;BME280;40029;58.708;50.190;2023-11-19T05:56:16;100309.63;;;-5.81;76.75
54122;BME280;40029;58.708;50.190;2023-11-19T05:58:52;100313.72;;;-5.88;76.43
54122;BME280;40029;58.708;50.190;2023-11-19T06:01:23;100311.97;;;-5.89;76.74
54122;BME280;40029;58.708;50.190;2023-11-19T06:03:54;100321.53;;;-5.85;76.63
54122;BME280;40029;58.708;50.190;2023-11-19T06:06:25;100317.78;;;-5.94;76.70
54122;BME280;40029;58.708;50.190;2023-11-19T06:08:56;100323.13;;;-5.90;76.69
54122;BME280;40029;58.708;50.190;2023-11-19T06:11:28;100316.38;;;-5.85;77.30
54122;BME280;40029;58.708;50.190;2023-11-19T06:13:59;100323.38;;;-5.82;76.68
54122;BME280;40029;58.708;50.190;2023-11-19T06:16:31;100322.44;;;-5.84;76.72
54122;BME280;40029;58.708;50.190;2023-11-19T06:19:02;100333.78;;;-5.79;76.63
54122;BME280;40029;58.708;50.190;2023-11-19T06:21:33;100330.53;;;-5.73;76.73
54122;BME280;40029;58.708;50.190;2023-11-19T06:24:06;100341.88;;;-5.67;76.71
54122;BME280;40029;58.708;50.190;2023-11-19T06:26:37;100341.94;;;-5.65;76.01
54122;BME280;40029;58.708;50.190;2023-11-19T06:29:09;100345.31;;;-5.68;76.19
54122;BME280;40029;58.708;50.190;2023-11-19T06:31:59;100344.00;;;-5.55;76.07
54122;BME280;40029;58.708;50.190;2023-11-19T06:34:30;100348.00;;;-5.63;76.11
54122;BME280;40029;58.708;50.190;2023-11-19T06:37:03;100346.59;;;-5.53;76.04
54122;BME280;40029;58.708;50.190;2023-11-19T06:39:35;100350.03;;;-5.54;75.81
54122;BME280;40029;58.708;50.190;2023-11-19T06:42:06;100346.97;;;-5.68;76.08
54122;BME280;40029;58.708;50.190;2023-11-19T06:44:38;100353.34;;;-5.58;76.10
54122;BME280;40029;58.708;50.190;2023-11-19T06:47:09;100359.34;;;-5.58;76.08
54122;BME280;40029;58.708;50.190;2023-11-19T06:49:44;100379.09;;;-5.58;75.92
54122;BME280;40029;58.708;50.190;2023-11-19T06:52:16;100372.38;;;-5.53;75.62
54122;BME280;40029;58.708;50.190;2023-11-19T06:54:47;100373.34;;;-5.50;75.44
54122;BME280;40029;58.708;50.190;2023-11-19T06:57:18;100376.88;;;-5.48;75.18
54122;BME280;40029;58.708;50.190;2023-11-19T06:59:51;100379.59;;;-5.43;75.36
54122;BME280;40029;58.708;50.190;2023-11-19T07:02:22;100384.50;;;-5.51;75.71
54122;BME280;40029;58.708;50.190;2023-11-19T07:04:53;100382.41;;;-5.35;75.32
54122;BME280;40029;58.708;50.190;2023-11-19T07:07:25;100379.59;;;-5.43;75.24
54122;BME280;40029;58.708;50.190;2023-11-19T07:09:57;100381.44;;;-5.39;75.07
54122;BME280;40029;58.708;50.190;2023-11-19T07:12:28;100386.41;;;-5.45;75.30
54122;BME280;40029;58.708;50.190;2023-11-19T07:14:59;100392.97;;;-5.53;75.04
54122;BME280;40029;58.708;50.190;2023-11-19T07:17:31;100389.41;;;-5.31;74.88
54122;BME280;40029;58.708;50.190;2023-11-19T07:20:02;100396.47;;;-5.26;74.74
54122;BME280;40029;58.708;50.190;2023-11-19T07:22:54;100395.47;;;-5.31;74.94
54122;BME280;40029;58.708;50.190;2023-11-19T07:25:27;100393.75;;;-5.30;75.17
54122;BME280;40029;58.708;50.190;2023-11-19T07:27:58;100406.06;;;-5.21;74.55
54122;BME280;40029;58.708;50.190;2023-11-19T07:30:29;100399.38;;;-5.15;74.42
54122;BME280;40029;58.708;50.190;2023-11-19T07:33:19;100402.84;;;-5.14;74.50
54122;BME280;40029;58.708;50.190;2023-11-19T07:35:51;100413.69;;;-5.25;74.28
54122;BME280;40029;58.708;50.190;2023-11-19T07:38:22;100411.16;;;-5.23;75.47
54122;BME280;40029;58.708;50.190;2023-11-19T07:40:53;100413.63;;;-5.26;74.86
54122;BME280;40029;58.708;50.190;2023-11-19T07:43:24;100413.06;;;-5.17;74.88
54122;BME280;40029;58.708;50.190;2023-11-19T07:45:56;100417.50;;;-5.39;75.84
54122;BME280;40029;58.708;50.190;2023-11-19T07:48:45;100403.81;;;-5.38;75.55
54122;BME280;40029;58.708;50.190;2023-11-19T07:51:19;100414.25;;;-5.33;75.35
54122;BME280;40029;58.708;50.190;2023-11-19T07:54:08;100413.63;;;-5.26;75.32
54122;BME280;40029;58.708;50.190;2023-11-19T07:56:40;100416.38;;;-5.21;75.33
54122;BME280;40029;58.708;50.190;2023-11-19T07:59:11;100409.00;;;-5.09;74.94
54122;BME280;40029;58.708;50.190;2023-11-19T08:01:42;100410.66;;;-5.11;75.25
54122;BME280;40029;58.708;50.190;2023-11-19T08:04:13;100408.72;;;-5.18;74.76
54122;BME280;40029;58.708;50.190;2023-11-19T08:06:44;100411.69;;;-5.33;75.88
54122;BME280;40029;58.708;50.190;2023-11-19T08:09:16;100413.63;;;-5.26;75.50
54122;BME280;40029;58.708;50.190;2023-11-19T08:11:47;100410.63;;;-5.13;75.14
54122;BME280;40029;58.708;50.190;2023-11-19T08:14:18;100422.63;;;-5.13;74.94
54122;BME280;40029;58.708;50.190;2023-11-19T08:16:50;100415.69;;;-5.16;74.95
54122;BME280;40029;58.708;50.190;2023-11-19T08:19:21;100408.94;;;-5.12;74.83
54122;BME280;40029;58.708;50.190;2023-11-19T08:21:52;100414.16;;;-5.09;75.06
54122;BME280;40029;58.708;50.190;2023-11-19T08:24:23;100421.94;;;-5.08;74.90
54122;BME280;40029;58.708;50.190;2023-11-19T08:27:12;100424.53;;;-5.08;75.30
54122;BME280;40029;58.708;50.190;2023-11-19T08:29:44;100420.63;;;-5.22;75.69
54122;BME280;40029;58.708;50.190;2023-11-19T08:32:15;100417.34;;;-5.18;74.91
54122;BME280;40029;58.708;50.190;2023-11-19T08:34:46;100415.69;;;-5.16;74.91
54122;BME280;40029;58.708;50.190;2023-11-19T08:37:17;100418.31;;;-5.14;75.52
54122;BME280;40029;58.708;50.190;2023-11-19T08:39:54;100418.28;;;-5.16;74.97
54122;BME280;40029;58.708;50.190;2023-11-19T08:42:44;100420.63;;;-5.22;75.21
54122;BME280;40029;58.708;50.190;2023-11-19T08:45:15;100414.97;;;-5.12;75.03
54122;BME280;40029;58.708;50.190;2023-11-19T08:47:46;100424.47;;;-5.11;74.89
54122;BME280;40029;58.708;50.190;2023-11-19T08:50:36;100422.69;;;-5.12;75.06
54122;BME280;40029;58.708;50.190;2023-11-19T08:53:07;100428.88;;;-5.07;74.89
54122;BME280;40029;58.708;50.190;2023-11-19T08:55:38;100432.28;;;-5.08;74.95
54122;BME280;40029;58.708;50.190;2023-11-19T08:58:27;100429.63;;;-5.09;75.14
54122;BME280;40029;58.708;50.190;2023-11-19T09:00:58;100432.38;;;-5.05;75.20
54122;BME280;40029;58.708;50.190;2023-11-19T09:03:31;100434.84;;;-5.08;75.36
54122;BME280;40029;58.708;50.190;2023-11-19T09:06:02;100436.03;;;-4.98;74.74
54122;BME280;40029;58.708;50.190;2023-11-19T09:08:34;100436.91;;;-4.97;75.00
54122;BME280;40029;58.708;50.190;2023-11-19T09:11:07;100433.69;;;-4.90;74.61
54122;BME280;40029;58.708;50.190;2023-11-19T09:13:39;100437.78;;;-4.97;74.86
54122;BME280;40029;58.708;50.190;2023-11-19T09:16:11;100442.13;;;-4.94;74.74
54122;BME280;40029;58.708;50.190;2023-11-19T09:18:43;100449.16;;;-4.90;75.21
54122;BME280;40029;58.708;50.190;2023-11-19T09:21:33;100441.22;;;-4.96;74.77
54122;BME280;40029;58.708;50.190;2023-11-19T09:24:07;100449.94;;;-4.93;75.02
54122;BME280;40029;58.708;50.190;2023-11-19T09:26:57;100451.66;;;-4.93;74.58
54122;BME280;40029;58.708;50.190;2023-11-19T09:29:31;100454.91;;;-4.99;74.59
54122;BME280;40029;58.708;50.190;2023-11-19T09:32:03;100445.56;;;-4.95;75.22
54122;BME280;40029;58.708;50.190;2023-11-19T09:34:35;100443.22;;;-4.88;74.86
54122;BME280;40029;58.708;50.190;2023-11-19T09:37:06;100451.00;;;-4.86;75.30
54122;BME280;40029;58.708;50.190;2023-11-19T09:39:38;100457.97;;;-4.83;74.80
54122;BME280;40029;58.708;50.190;2023-11-19T09:42:10;100466.50;;;-4.86;75.33
54122;BME280;40029;58.708;50.190;2023-11-19T09:44:42;100465.66;;;-4.85;74.82
54122;BME280;40029;58.708;50.190;2023-11-19T09:47:14;100472.28;;;-4.93;75.04
54122;BME280;40029;58.708;50.190;2023-11-19T09:49:45;100470.44;;;-4.97;75.06
54122;BME280;40029;58.708;50.190;2023-11-19T09:52:16;100473.88;;;-4.97;75.28
54122;BME280;40029;58.708;50.190;2023-11-19T09:54:49;100468.78;;;-4.95;75.28
54122;BME280;40029;58.708;50.190;2023-11-19T09:57:20;100477.31;;;-4.98;75.12
54122;BME280;40029;58.708;50.190;2023-11-19T09:59:52;100470.28;;;-5.02;74.85
54122;BME280;40029;58.708;50.190;2023-11-19T10:02:24;100472.84;;;-5.02;74.72
54122;BME280;40029;58.708;50.190;2023-11-19T10:04:59;100470.38;;;-4.99;75.05
54122;BME280;40029;58.708;50.190;2023-11-19T10:07:30;100480.59;;;-5.02;75.15
54122;BME280;40029;58.708;50.190;2023-11-19T10:10:02;100473.09;;;-4.94;75.08
54122;BME280;40029;58.708;50.190;2023-11-19T10:12:36;100478.69;;;-5.08;75.41
54122;BME280;40029;58.708;50.190;2023-11-19T10:15:17;100487.56;;;-4.99;75.05
54122;BME280;40029;58.708;50.190;2023-11-19T10:17:51;100476.34;;;-5.01;75.98
54122;BME280;40029;58.708;50.190;2023-11-19T10:20:22;100476.41;;;-4.98;75.43
54122;BME280;40029;58.708;50.190;2023-11-19T10:22:55;100481.00;;;-4.90;75.23
54122;BME280;40029;58.708;50.190;2023-11-19T10:25:28;100485.03;;;-4.98;75.40
54122;BME280;40029;58.708;50.190;2023-11-19T10:28:00;100485.91;;;-4.97;75.34
54122;BME280;40029;58.708;50.190;2023-11-19T10:30:31;100485.28;;;-4.90;75.46
54122;BME280;40029;58.708;50.190;2023-11-19T10:33:14;100485.41;;;-4.86;75.11
54122;BME280;40029;58.708;50.190;2023-11-19T10:35:51;100497.84;;;-5.01;75.19
54122;BME280;40029;58.708;50.190;2023-11-19T10:38:25;100487.69;;;-4.95;75.22
54122;BME280;40029;58.708;50.190;2023-11-19T10:41:29;100494.41;;;-5.00;75.29
54122;BME280;40029;58.708;50.190;2023-11-19T10:44:32;100503.44;;;-5.13;75.60
54122;BME280;40029;58.708;50.190;2023-11-19T10:47:08;100498.59;;;-5.04;75.18
54122;BME280;40029;58.708;50.190;2023-11-19T10:49:40;100506.38;;;-5.02;75.81
54122;BME280;40029;58.708;50.190;2023-11-19T10:52:11;100504.72;;;-5.00;75.42
54122;BME280;40029;58.708;50.190;2023-11-19T10:54:49;100508.16;;;-5.01;75.04
54122;BME280;40029;58.708;50.190;2023-11-19T10:57:24;100504.22;;;-5.15;76.14
54122;BME280;40029;58.708;50.190;2023-11-19T11:00:02;100513.97;;;-5.07;76.30
54122;BME280;40029;58.708;50.190;2023-11-19T11:02:41;100513.13;;;-5.07;76.38
54122;BME280;40029;58.708;50.190;2023-11-19T11:05:34;100508.91;;;-5.04;75.90
54122;BME280;40029;58.708;50.190;2023-11-19T11:08:06;100511.47;;;-5.04;75.98
54122;BME280;40029;58.708;50.190;2023-11-19T11:10:43;100518.56;;;-4.98;75.95
54122;BME280;40029;58.708;50.190;2023-11-19T11:13:34;100531.19;;;-5.06;75.96
54122;BME280;40029;58.708;50.190;2023-11-19T11:16:25;100530.13;;;-5.12;76.00
54122;BME280;40029;58.708;50.190;2023-11-19T11:18:56;100531.97;;;-5.08;76.33
54122;BME280;40029;58.708;50.190;2023-11-19T11:21:28;100531.00;;;-5.12;75.88
54122;BME280;40029;58.708;50.190;2023-11-19T11:24:05;100527.28;;;-5.20;76.18
54122;BME280;40029;58.708;50.190;2023-11-19T11:27:02;100523.88;;;-5.19;76.25
54122;BME280;40029;58.708;50.190;2023-11-19T11:35:42;100534.31;;;-5.16;75.94
54122;BME280;40029;58.708;50.190;2023-11-19T11:38:21;100539.66;;;-5.10;76.04
54122;BME280;40029;58.708;50.190;2023-11-19T11:41:18;100539.66;;;-5.10;76.14
54122;BME280;40029;58.708;50.190;2023-11-19T11:43:53;100538.78;;;-5.10;75.85
54122;BME280;40029;58.708;50.190;2023-11-19T11:49:05;100542.19;;;-5.11;76.35
54122;BME280;40029;58.708;50.190;2023-11-19T11:51:58;100551.97;;;-5.27;76.44
54122;BME280;40029;58.708;50.190;2023-11-19T11:54:31;100549.09;;;-5.36;76.76
54122;BME280;40029;58.708;50.190;2023-11-19T11:57:11;100555.06;;;-5.37;77.08
54122;BME280;40029;58.708;50.190;2023-11-19T11:59:47;100550.69;;;-5.39;77.08
54122;BME280;40029;58.708;50.190;2023-11-19T12:02:37;100555.94;;;-5.36;77.25
54122;BME280;40029;58.708;50.190;2023-11-19T12:05:09;100553.50;;;-5.32;76.95
54122;BME280;40029;58.708;50.190;2023-11-19T12:08:03;100555.34;;;-5.29;76.91
54122;BME280;40029;58.708;50.190;2023-11-19T12:10:49;100551.91;;;-5.28;76.95
54122;BME280;40029;58.708;50.190;2023-11-19T12:13:21;100562.22;;;-5.28;76.98
54122;BME280;40029;58.708;50.190;2023-11-19T12:18:30;100559.47;;;-5.34;76.60
54122;BME280;40029;58.708;50.190;2023-11-19T12:21:03;100556.03;;;-5.33;76.86
54122;BME280;40029;58.708;50.190;2023-11-19T12:23:44;100561.31;;;-5.30;76.66
54122;BME280;40029;58.708;50.190;2023-11-19T12:26:37;100559.84;;;-5.24;76.83
54122;BME280;40029;58.708;50.190;2023-11-19T12:29:08;100566.53;;;-5.29;76.92
54122;BME280;40029;58.708;50.190;2023-11-19T12:31:44;100567.19;;;-5.34;76.96
54122;BME280;40029;58.708;50.190;2023-11-19T12:34:16;100573.22;;;-5.34;76.61
54122;BME280;40029;58.708;50.190;2023-11-19T12:36:47;100569.84;;;-5.31;77.04
54122;BME280;40029;58.708;50.190;2023-11-19T12:39:19;100571.41;;;-5.36;77.10
54122;BME280;40029;58.708;50.190;2023-11-19T12:41:51;100577.66;;;-5.30;77.58
54122;BME280;40029;58.708;50.190;2023-11-19T12:44:23;100577.66;;;-5.30;76.78
54122;BME280;40029;58.708;50.190;2023-11-19T12:49:33;100578.22;;;-5.38;76.49
54122;BME280;40029;58.708;50.190;2023-11-19T12:52:12;100581.50;;;-5.43;76.91
54122;BME280;40029;58.708;50.190;2023-11-19T12:54:43;100587.38;;;-5.47;76.73
54122;BME280;40029;58.708;50.190;2023-11-19T12:57:15;100577.00;;;-5.48;76.43
54122;BME280;40029;58.708;50.190;2023-11-19T12:59:56;100583.06;;;-5.48;76.60
54122;BME280;40029;58.708;50.190;2023-11-19T13:02:47;100581.66;;;-5.62;76.58
54122;BME280;40029;58.708;50.190;2023-11-19T13:05:32;100583.84;;;-5.73;76.87
54122;BME280;40029;58.708;50.190;2023-11-19T13:08:05;100594.44;;;-5.65;77.13
54122;BME280;40029;58.708;50.190;2023-11-19T13:10:51;100587.63;;;-5.63;77.22
54122;BME280;40029;58.708;50.190;2023-11-19T13:13:22;100581.47;;;-5.67;77.24
54122;BME280;40029;58.708;50.190;2023-11-19T13:16:04;100583.34;;;-5.63;77.02
54122;BME280;40029;58.708;50.190;2023-11-19T13:18:39;100581.81;;;-5.57;77.12
54122;BME280;40029;58.708;50.190;2023-11-19T13:21:10;100589.41;;;-5.62;77.42
54122;BME280;40029;58.708;50.190;2023-11-19T13:24:00;100585.31;;;-5.55;77.09
54122;BME280;40029;58.708;50.190;2023-11-19T13:26:32;100588.84;;;-5.53;76.93
54122;BME280;40029;58.708;50.190;2023-11-19T13:29:21;100590.84;;;-5.69;76.90
54122;BME280;40029;58.708;50.190;2023-11-19T13:32:11;100584.56;;;-5.77;77.07
54122;BME280;40029;58.708;50.190;2023-11-19T13:34:42;100595.88;;;-5.72;77.38